Time;durP1;ratioP1;P1;durP2;ratioP2;P2;SDS_P1;SDS_P2;PMS_P1;PMS_P2;Temp;Humidity;BMP_temperature;BMP_pressure;BME280_temperature;BME280_humidity;BME280_pressure;Samples;Min_cycle;Max_cycle;Signal;HPM_P1;HPM_P2
2023/02/17 00:01:26;;;;;;;19.13;17.33;;;;;;;6.67;74.12;98986.81;4953744;29;20102;-74
2023/02/17 00:03:52;;;;;;;18.35;16.58;;;;;;;6.70;74.60;98978.38;4953650;29;20039;-72
2023/02/17 00:06:20;;;;;;;19.48;17.58;;;;;;;6.69;73.99;98987.44;4950355;29;20042;-72
2023/02/17 00:08:46;;;;;;;18.00;16.33;;;;;;;6.89;72.75;98982.97;4963517;28;20081;-72
2023/02/17 00:11:12;;;;;;;17.10;14.73;;;;;;;6.93;73.40;98978.06;4959733;28;20051;-72
2023/02/17 00:13:37;;;;;;;16.83;15.20;;;;;;;6.80;73.26;98978.81;4962334;28;20035;-72
2023/02/17 00:16:17;;;;;;;17.73;15.77;;;;;;;6.85;73.68;98987.09;4963256;28;20038;-72
2023/02/17 00:18:42;;;;;;;16.90;15.27;;;;;;;6.76;74.49;98982.09;4942050;28;20089;-72
2023/02/17 00:21:20;;;;;;;18.92;17.13;;;;;;;6.87;74.17;98973.50;4959793;28;20035;-74
2023/02/17 00:23:46;;;;;;;20.05;17.50;;;;;;;6.78;73.48;98961.31;4961085;28;20082;-73
2023/02/17 00:26:12;;;;;;;18.92;17.13;;;;;;;6.74;73.99;98971.63;4965156;28;20023;-73
2023/02/17 00:28:37;;;;;;;18.67;16.40;;;;;;;6.96;72.66;98973.09;4965701;28;20042;-72
2023/02/17 00:31:10;;;;;;;18.25;16.35;;;;;;;6.82;74.20;98976.78;4976001;28;20034;-72
2023/02/17 00:33:36;;;;;;;19.98;17.95;;;;;;;6.75;74.37;98975.94;4943634;28;20042;-72
2023/02/17 00:36:06;;;;;;;21.33;19.13;;;;;;;6.78;74.91;98970.19;4944442;28;20111;-73
2023/02/17 00:38:31;;;;;;;21.13;19.13;;;;;;;6.76;75.41;98966.03;4964454;28;20038;-73
2023/02/17 00:40:58;;;;;;;19.75;17.85;;;;;;;6.87;73.99;98968.13;4961172;28;20485;-73
2023/02/17 00:43:23;;;;;;;19.50;17.80;;;;;;;6.70;74.59;98962.31;4941394;28;20040;-73
2023/02/17 00:45:48;;;;;;;18.85;16.92;;;;;;;6.71;74.29;98966.66;4959746;28;20163;-74
2023/02/17 00:48:14;;;;;;;21.42;18.73;;;;;;;6.74;74.41;98971.63;4949973;28;20046;-73
2023/02/17 00:50:39;;;;;;;21.00;18.90;;;;;;;6.66;75.05;98971.78;4964664;28;20085;-73
2023/02/17 00:53:04;;;;;;;20.65;18.60;;;;;;;6.76;74.87;98961.53;4965854;28;20500;-74
2023/02/17 00:55:31;;;;;;;23.48;21.25;;;;;;;6.80;75.07;98962.75;4968603;28;20049;-73
2023/02/17 00:57:57;;;;;;;20.88;18.88;;;;;;;6.67;75.24;98965.41;4937512;28;20497;-73
2023/02/17 01:00:22;;;;;;;20.65;18.65;;;;;;;6.71;75.65;98966.66;4952059;29;20057;-73
2023/02/17 01:02:48;;;;;;;20.25;18.45;;;;;;;6.67;75.58;98957.38;4981077;28;20400;-73
2023/02/17 01:05:15;;;;;;;20.63;18.67;;;;;;;6.81;74.75;98959.03;4960309;28;20022;-74
2023/02/17 01:07:40;;;;;;;21.38;19.38;;;;;;;6.69;74.84;98954.50;4958877;28;20038;-73
2023/02/17 01:10:07;;;;;;;22.52;20.52;;;;;;;6.75;75.39;98943.81;4962713;28;20043;-73
2023/02/17 01:12:32;;;;;;;21.20;18.65;;;;;;;6.72;75.01;98949.56;4966517;28;20065;-73
2023/02/17 01:14:58;;;;;;;20.20;18.42;;;;;;;6.82;74.16;98950.00;4964330;28;20122;-73
2023/02/17 01:17:23;;;;;;;18.02;16.42;;;;;;;6.77;75.29;98947.09;4965405;28;20110;-74
2023/02/17 01:19:48;;;;;;;20.08;18.27;;;;;;;6.63;75.82;98945.41;4959284;28;20493;-73
2023/02/17 01:22:14;;;;;;;20.95;19.00;;;;;;;6.75;75.23;98946.47;4957974;28;20042;-73
2023/02/17 01:24:40;;;;;;;20.52;18.80;;;;;;;6.69;75.26;98938.44;4947386;28;20027;-73
2023/02/17 01:27:05;;;;;;;23.02;21.13;;;;;;;6.66;76.30;98950.38;4963716;28;20030;-74
2023/02/17 01:29:31;;;;;;;23.00;21.00;;;;;;;6.64;76.50;98947.06;4959120;28;20113;-73
2023/02/17 01:31:56;;;;;;;22.95;21.05;;;;;;;6.69;76.59;98949.97;4954478;28;20075;-74
2023/02/17 01:34:21;;;;;;;24.55;22.58;;;;;;;6.52;76.80;98943.31;4895741;29;1073289;-74
2023/02/17 01:36:47;;;;;;;23.50;21.42;;;;;;;6.67;75.86;98935.97;4958915;28;20129;-76
2023/02/17 01:39:13;;;;;;;21.65;19.77;;;;;;;6.67;76.30;98935.13;4953443;28;20043;-73
2023/02/17 01:41:39;;;;;;;20.98;18.98;;;;;;;6.70;76.37;98937.38;4965405;28;20520;-74
2023/02/17 01:44:24;;;;;;;22.38;20.38;;;;;;;6.69;76.01;98933.91;4961783;28;20027;-74
2023/02/17 01:46:52;;;;;;;23.65;21.75;;;;;;;6.62;77.05;98921.53;4929451;28;20505;-74
2023/02/17 01:49:29;;;;;;;25.08;23.08;;;;;;;6.58;77.40;98914.94;4962721;28;20040;-74
2023/02/17 01:52:08;;;;;;;25.70;23.77;;;;;;;6.60;77.56;98913.72;4959169;28;20042;-74
2023/02/17 01:54:41;;;;;;;26.52;24.42;;;;;;;6.64;77.23;98908.78;4962315;28;20374;-74
2023/02/17 01:57:08;;;;;;;24.25;22.05;;;;;;;6.66;77.00;98912.91;4955489;29;20038;-74
2023/02/17 01:59:33;;;;;;;25.75;23.48;;;;;;;6.66;77.31;98912.91;4955844;28;20381;-74
2023/02/17 02:02:02;;;;;;;26.25;24.45;;;;;;;6.63;77.55;98918.66;4963962;28;20581;-74
2023/02/17 02:04:31;;;;;;;26.50;24.50;;;;;;;6.69;78.27;98917.84;4958961;28;20027;-74
2023/02/17 02:06:57;;;;;;;26.00;24.10;;;;;;;6.98;77.85;98901.44;4946559;28;20043;-73
2023/02/17 02:09:38;;;;;;;27.40;25.38;;;;;;;6.96;77.92;98898.13;4925100;28;20027;-73
2023/02/17 02:12:18;;;;;;;26.98;24.77;;;;;;;7.06;78.01;98896.91;4964670;28;20433;-73
2023/02/17 02:14:44;;;;;;;27.38;25.42;;;;;;;7.16;77.41;98897.34;4965416;28;20091;-73
2023/02/17 02:17:22;;;;;;;28.23;26.27;;;;;;;6.98;78.57;98893.41;4944849;29;20438;-73
2023/02/17 02:20:09;;;;;;;29.48;27.48;;;;;;;6.92;78.31;98896.91;4944005;29;20035;-73
2023/02/17 02:22:58;;;;;;;28.60;26.58;;;;;;;7.00;77.51;98887.84;4956777;28;20035;-74
2023/02/17 02:26:03;;;;;;;29.15;27.20;;;;;;;6.95;78.94;98884.97;4969525;28;20035;-73
2023/02/17 02:28:43;;;;;;;29.67;27.38;;;;;;;6.93;78.49;98881.66;4966723;28;20034;-72
2023/02/17 02:31:36;;;;;;;29.52;27.48;;;;;;;6.84;78.77;98872.97;4951810;28;20092;-72
2023/02/17 02:34:07;;;;;;;27.63;25.63;;;;;;;6.89;78.34;98870.53;4961906;28;20572;-72
2023/02/17 02:36:45;;;;;;;27.00;25.00;;;;;;;6.87;78.46;98872.59;4943896;28;20037;-72
2023/02/17 02:39:12;;;;;;;28.85;26.52;;;;;;;6.87;77.83;98872.59;4932983;28;20065;-74
2023/02/17 02:41:50;;;;;;;28.25;26.35;;;;;;;6.78;78.44;98876.50;4942268;28;20032;-73
2023/02/17 02:44:18;;;;;;;29.23;27.23;;;;;;;6.76;78.02;98875.03;4963280;28;20065;-73
2023/02/17 02:46:43;;;;;;;29.20;27.23;;;;;;;6.80;78.54;98879.78;4943932;28;20630;-74
2023/02/17 02:49:09;;;;;;;31.35;28.95;;;;;;;6.72;78.33;98871.94;4966783;28;20039;-75
2023/02/17 02:51:41;;;;;;;32.05;29.85;;;;;;;6.73;78.65;98870.91;4968037;28;20046;-76
2023/02/17 02:54:15;;;;;;;34.17;31.73;;;;;;;6.75;78.10;98871.53;4965060;28;20035;-74
2023/02/17 02:57:00;;;;;;;31.73;29.52;;;;;;;6.77;78.86;98877.50;4945303;28;20082;-73
2023/02/17 02:59:57;;;;;;;35.55;32.88;;;;;;;6.71;79.23;98856.91;4961019;28;20501;-75
2023/02/17 03:02:36;;;;;;;35.30;32.97;;;;;;;6.70;79.28;98874.00;4967887;28;20385;-74
2023/02/17 03:05:10;;;;;;;38.67;36.10;;;;;;;6.79;78.41;98877.31;4941994;29;20035;-74
2023/02/17 03:07:44;;;;;;;38.20;35.78;;;;;;;6.77;79.67;98869.47;4938203;29;20458;-74
2023/02/17 03:10:09;;;;;;;38.30;35.75;;;;;;;6.69;79.18;98864.31;4963384;28;20035;-74
2023/02/17 03:12:37;;;;;;;39.35;36.85;;;;;;;6.71;80.13;98872.97;4960900;28;20033;-73
2023/02/17 03:15:08;;;;;;;41.35;38.55;;;;;;;6.64;79.86;98865.94;4946054;28;20039;-76
2023/02/17 03:17:33;;;;;;;44.15;41.15;;;;;;;6.54;81.15;98855.63;4947579;28;20572;-74
2023/02/17 03:20:00;;;;;;;46.17;43.28;;;;;;;6.67;80.82;98865.56;4963859;28;20023;-73
2023/02/17 03:22:39;;;;;;;46.78;43.75;;;;;;;6.59;81.08;98863.06;4941598;28;20580;-74
2023/02/17 03:25:05;;;;;;;48.70;45.80;;;;;;;6.53;81.92;98869.22;4943560;28;20127;-73
2023/02/17 03:27:30;;;;;;;50.13;46.95;;;;;;;6.43;82.98;98864.25;4961894;28;20063;-74
2023/02/17 03:29:56;;;;;;;53.75;50.35;;;;;;;6.40;83.48;98859.31;4956989;28;20067;-74
2023/02/17 03:32:21;;;;;;;55.88;52.42;;;;;;;6.34;84.17;98854.78;4944624;28;20027;-73
2023/02/17 03:34:47;;;;;;;56.22;52.85;;;;;;;6.34;83.90;98852.09;4943458;28;20122;-75
2023/02/17 03:37:12;;;;;;;59.08;55.70;;;;;;;6.42;85.01;98857.25;4948170;29;20046;-73
2023/02/17 03:39:37;;;;;;;61.85;58.25;;;;;;;6.31;85.57;98855.16;4956785;28;20038;-74
2023/02/17 03:42:03;;;;;;;62.70;58.67;;;;;;;6.39;85.55;98846.97;4961764;28;20473;-75
2023/02/17 03:44:28;;;;;;;62.60;58.83;;;;;;;6.43;84.78;98853.56;4962815;28;20043;-74
2023/02/17 03:46:54;;;;;;;61.35;57.83;;;;;;;6.43;85.55;98845.53;4963181;28;20039;-72
2023/02/17 03:49:19;;;;;;;61.42;57.65;;;;;;;6.38;85.45;98850.66;4971823;28;20078;-73
2023/02/17 03:51:45;;;;;;;61.90;57.67;;;;;;;6.37;85.33;98849.00;4944234;28;20113;-73
2023/02/17 03:54:10;;;;;;;62.90;58.95;;;;;;;6.36;86.09;98843.84;4963341;28;20063;-72
2023/02/17 03:56:36;;;;;;;62.38;58.58;;;;;;;6.48;84.94;98851.09;4963598;28;20432;-73
2023/02/17 03:59:02;;;;;;;63.97;60.10;;;;;;;6.51;85.85;98850.69;4944784;28;20070;-75
2023/02/17 04:01:28;;;;;;;66.28;62.28;;;;;;;6.50;84.75;98849.06;4957864;28;20074;-73
2023/02/17 04:03:53;;;;;;;64.15;60.17;;;;;;;6.45;85.66;98851.50;4959727;28;20040;-74
2023/02/17 04:06:19;;;;;;;66.82;62.65;;;;;;;6.41;86.34;98849.44;4960063;28;20032;-73
2023/02/17 04:08:44;;;;;;;67.13;62.92;;;;;;;6.43;86.35;98847.38;4969964;28;20042;-74
2023/02/17 04:11:10;;;;;;;70.03;65.25;;;;;;;6.47;86.19;98841.41;4944094;28;20030;-74
2023/02/17 04:13:36;;;;;;;68.85;64.22;;;;;;;6.55;87.16;98843.09;4947103;28;20441;-73
2023/02/17 04:16:03;;;;;;;74.18;69.63;;;;;;;6.52;87.26;98835.47;4966547;28;20050;-74
2023/02/17 04:18:29;;;;;;;68.00;63.83;;;;;;;6.54;86.87;98836.91;4962815;28;20034;-75
2023/02/17 04:20:55;;;;;;;70.57;65.97;;;;;;;6.45;86.56;98832.78;4960849;28;20037;-74
2023/02/17 04:23:20;;;;;;;69.68;65.43;;;;;;;6.51;86.18;98823.13;4943591;28;20039;-74
2023/02/17 04:25:46;;;;;;;70.35;65.85;;;;;;;6.51;86.53;98818.56;4979427;28;20027;-76
2023/02/17 04:28:14;;;;;;;67.38;62.75;;;;;;;6.46;86.51;98821.06;4963976;28;20038;-74
2023/02/17 04:30:44;;;;;;;67.32;63.25;;;;;;;6.50;87.06;98832.16;4943664;28;20046;-73
2023/02/17 04:33:10;;;;;;;66.57;62.13;;;;;;;6.54;87.14;98828.06;4972730;28;20101;-74
2023/02/17 04:35:35;;;;;;;66.50;62.15;;;;;;;6.53;86.21;98832.59;4943407;28;20022;-74
2023/02/17 04:38:01;;;;;;;64.85;60.78;;;;;;;6.58;87.31;98832.78;4962675;28;20097;-74
2023/02/17 04:40:26;;;;;;;65.85;61.45;;;;;;;6.61;86.53;98835.06;4963058;28;20081;-75
2023/02/17 04:42:52;;;;;;;66.28;61.75;;;;;;;6.54;86.61;98826.19;4955387;28;20495;-75
2023/02/17 04:45:17;;;;;;;69.30;64.93;;;;;;;6.56;85.62;98829.50;4960400;28;20106;-75
2023/02/17 04:47:42;;;;;;;69.25;64.78;;;;;;;6.47;86.97;98833.38;4961127;28;20489;-75
2023/02/17 04:50:09;;;;;;;70.57;65.93;;;;;;;6.54;86.38;98825.38;4953574;28;20081;-74
2023/02/17 04:52:35;;;;;;;67.80;63.17;;;;;;;6.41;86.51;98828.88;4949505;29;20095;-74
2023/02/17 04:55:01;;;;;;;67.80;63.47;;;;;;;6.48;87.11;98829.69;4963550;28;20035;-75
2023/02/17 04:57:26;;;;;;;67.53;63.25;;;;;;;6.55;86.98;98827.88;4978954;28;20069;-74
2023/02/17 04:59:52;;;;;;;70.43;66.03;;;;;;;6.50;86.70;98835.66;4960417;28;20038;-75
2023/02/17 05:02:17;;;;;;;67.75;63.13;;;;;;;6.51;87.16;98829.28;4962714;28;20046;-75
2023/02/17 05:04:42;;;;;;;68.57;64.35;;;;;;;6.50;87.60;98824.97;4949481;29;20032;-74
2023/02/17 05:07:08;;;;;;;67.45;63.05;;;;;;;6.58;86.86;98824.75;4939878;29;20055;-75
2023/02/17 05:09:33;;;;;;;70.72;65.90;;;;;;;6.52;86.70;98814.88;4964215;28;20030;-74
2023/02/17 05:11:58;;;;;;;66.63;62.28;;;;;;;6.59;86.46;98818.41;4978294;28;20042;-74
2023/02/17 05:14:24;;;;;;;67.57;63.45;;;;;;;6.59;86.87;98821.06;4959045;28;20038;-73
2023/02/17 05:16:49;;;;;;;64.25;60.13;;;;;;;6.58;87.07;98816.72;4958222;28;20122;-74
2023/02/17 05:19:15;;;;;;;64.45;60.05;;;;;;;6.56;87.29;98816.13;4963549;28;20027;-73
2023/02/17 05:21:40;;;;;;;67.78;63.05;;;;;;;6.48;86.98;98804.78;4962182;28;20497;-73
2023/02/17 05:24:06;;;;;;;66.53;62.25;;;;;;;6.68;86.99;98814.50;4959870;28;20106;-74
2023/02/17 05:26:31;;;;;;;67.93;63.45;;;;;;;6.66;86.85;98811.19;4963400;28;20513;-73
2023/02/17 05:28:56;;;;;;;66.25;62.05;;;;;;;6.73;86.28;98814.72;4965981;28;20046;-73
2023/02/17 05:31:22;;;;;;;65.95;61.75;;;;;;;6.61;86.16;98812.81;4961484;28;20169;-74
2023/02/17 05:33:47;;;;;;;66.45;62.45;;;;;;;6.77;86.03;98813.25;4956145;28;20382;-73
2023/02/17 05:36:13;;;;;;;63.65;59.70;;;;;;;6.72;85.52;98810.38;4936225;29;20035;-74
2023/02/17 05:38:38;;;;;;;63.33;59.33;;;;;;;6.72;85.74;98804.22;4964457;28;20038;-74
2023/02/17 05:41:04;;;;;;;63.30;59.10;;;;;;;6.84;85.17;98814.09;4961344;28;20182;-74
2023/02/17 05:43:30;;;;;;;66.07;61.65;;;;;;;6.73;85.52;98817.38;4957618;28;20039;-73
2023/02/17 05:45:59;;;;;;;63.13;59.08;;;;;;;6.74;85.94;98813.69;4962648;28;20031;-73
2023/02/17 05:48:25;;;;;;;61.88;57.95;;;;;;;6.73;86.43;98809.34;4964601;28;20077;-74
2023/02/17 05:50:50;;;;;;;64.32;60.20;;;;;;;6.71;85.96;98798.03;4961420;28;20050;-74
2023/02/17 05:53:15;;;;;;;64.00;60.10;;;;;;;6.76;85.96;98811.63;4959860;28;20030;-73
2023/02/17 05:55:41;;;;;;;65.50;61.40;;;;;;;6.75;86.87;98809.97;4971284;28;20034;-74
2023/02/17 05:58:06;;;;;;;66.75;62.50;;;;;;;6.82;85.80;98804.63;4957484;28;20378;-75
2023/02/17 06:00:32;;;;;;;64.57;60.67;;;;;;;6.86;85.37;98806.66;4962075;28;20122;-74
2023/02/17 06:02:57;;;;;;;65.38;61.17;;;;;;;6.83;86.19;98801.75;4964948;28;20089;-74
2023/02/17 06:05:22;;;;;;;69.65;65.40;;;;;;;6.87;85.39;98802.97;4961564;28;20042;-74
2023/02/17 06:07:48;;;;;;;64.82;60.58;;;;;;;6.92;85.16;98808.53;4958989;28;20113;-74
2023/02/17 06:10:13;;;;;;;71.20;66.68;;;;;;;7.00;84.81;98801.34;4963287;28;20031;-74
2023/02/17 06:12:39;;;;;;;81.63;76.30;;;;;;;7.06;84.83;98789.78;4965134;28;20034;-74
2023/02/17 06:15:05;;;;;;;63.55;59.72;;;;;;;7.09;84.58;98792.06;4960576;28;20046;-74
2023/02/17 06:17:30;;;;;;;64.53;60.50;;;;;;;7.08;84.25;98798.44;4956784;28;20385;-73
2023/02/17 06:19:55;;;;;;;62.50;58.63;;;;;;;7.17;85.17;98807.91;4960664;28;20508;-73
2023/02/17 06:22:21;;;;;;;62.10;58.28;;;;;;;7.07;83.78;98796.81;4926408;28;20035;-74
2023/02/17 06:24:46;;;;;;;64.35;60.42;;;;;;;7.14;83.95;98819.03;4946249;29;20470;-74
2023/02/17 06:27:11;;;;;;;62.85;58.80;;;;;;;7.16;83.79;98811.63;4964368;28;20457;-76
2023/02/17 06:29:37;;;;;;;59.90;56.28;;;;;;;7.15;84.28;98823.34;4953791;28;20035;-74
2023/02/17 06:32:02;;;;;;;59.25;55.67;;;;;;;7.29;82.84;98822.31;4955475;29;20479;-71
2023/02/17 06:34:28;;;;;;;60.03;55.97;;;;;;;7.31;83.90;98809.53;4963172;28;20049;-74
2023/02/17 06:36:53;;;;;;;87.53;80.15;;;;;;;7.46;83.16;98819.00;4962269;28;20019;-74
2023/02/17 06:39:18;;;;;;;77.45;70.93;;;;;;;7.44;82.91;98820.25;4967006;28;20035;-74
2023/02/17 06:41:44;;;;;;;68.95;63.78;;;;;;;7.36;83.07;98815.09;4968226;28;20034;-74
2023/02/17 06:44:09;;;;;;;74.18;68.40;;;;;;;7.26;83.14;98801.31;4962807;28;20035;-74
2023/02/17 06:46:35;;;;;;;70.57;65.47;;;;;;;7.31;83.07;98809.53;4962643;28;20058;-74
2023/02/17 06:49:00;;;;;;;91.90;83.28;;;;;;;7.39;83.51;98814.69;4967717;28;20041;-74
2023/02/17 06:51:27;;;;;;;69.80;64.70;;;;;;;7.44;82.73;98810.34;4967924;28;20078;-74
2023/02/17 06:53:52;;;;;;;57.28;53.58;;;;;;;7.51;83.63;98804.97;4962956;28;20043;-73
2023/02/17 06:56:18;;;;;;;58.85;54.97;;;;;;;7.56;82.08;98803.28;4960943;28;20031;-73
2023/02/17 06:58:43;;;;;;;55.33;51.85;;;;;;;7.47;83.84;98803.72;4960521;28;20091;-73
2023/02/17 07:01:25;;;;;;;57.25;53.88;;;;;;;7.54;82.88;98809.88;4956238;28;20517;-73
2023/02/17 07:03:54;;;;;;;56.88;53.28;;;;;;;7.57;83.86;98806.81;4960942;28;20126;-73
2023/02/17 07:06:20;;;;;;;55.90;51.80;;;;;;;7.64;82.74;98799.56;4965165;28;20032;-73
2023/02/17 07:08:45;;;;;;;52.92;49.38;;;;;;;7.64;83.56;98805.75;4964246;28;20038;-74
2023/02/17 07:11:12;;;;;;;52.40;48.85;;;;;;;7.69;82.26;98815.84;4944969;28;20101;-73
2023/02/17 07:13:39;;;;;;;55.20;52.15;;;;;;;7.64;82.96;98816.47;4944477;28;20040;-73
2023/02/17 07:16:06;;;;;;;55.67;52.28;;;;;;;7.78;83.21;98821.78;4969359;28;20026;-73
2023/02/17 07:18:31;;;;;;;52.85;49.40;;;;;;;7.85;83.18;98820.75;4957089;28;20039;-73
2023/02/17 07:20:56;;;;;;;54.42;50.88;;;;;;;7.82;83.85;98818.47;4961935;28;20039;-74
2023/02/17 07:23:22;;;;;;;55.92;52.58;;;;;;;7.70;83.26;98824.72;4963427;28;20051;-73
2023/02/17 07:25:47;;;;;;;55.60;52.30;;;;;;;7.82;82.66;98821.16;4970960;28;20137;-73
2023/02/17 07:28:12;;;;;;;55.53;52.10;;;;;;;8.02;82.82;98829.13;4962889;28;20031;-74
2023/02/17 07:30:39;;;;;;;52.25;49.15;;;;;;;8.06;82.46;98836.56;4964158;28;20119;-73
2023/02/17 07:33:05;;;;;;;53.15;49.85;;;;;;;8.12;82.64;98842.94;4955781;28;20054;-73
2023/02/17 07:35:31;;;;;;;51.75;48.63;;;;;;;7.88;82.98;98828.38;4928821;28;20031;-73
2023/02/17 07:37:57;;;;;;;53.38;50.17;;;;;;;7.95;83.65;98850.63;4962639;28;20041;-74
2023/02/17 07:40:22;;;;;;;53.13;50.15;;;;;;;8.03;83.23;98844.19;4963495;28;20020;-74
2023/02/17 07:42:48;;;;;;;51.22;48.05;;;;;;;8.07;82.32;98851.63;4956548;28;20078;-73
2023/02/17 07:45:13;;;;;;;50.90;47.88;;;;;;;8.06;82.62;98846.44;4945015;28;20027;-73
2023/02/17 07:47:38;;;;;;;51.90;49.03;;;;;;;7.98;83.10;98858.22;4964642;28;20035;-73
2023/02/17 07:50:04;;;;;;;54.03;50.90;;;;;;;8.03;82.35;98847.69;4959309;28;20073;-73
2023/02/17 07:52:30;;;;;;;56.65;53.22;;;;;;;7.84;83.32;98851.25;4970221;28;20082;-73
2023/02/17 07:54:55;;;;;;;57.42;54.00;;;;;;;7.94;83.61;98853.50;4953571;29;20425;-74
2023/02/17 07:57:20;;;;;;;57.38;53.58;;;;;;;7.81;84.37;98849.03;4962868;28;20033;-72
2023/02/17 07:59:47;;;;;;;58.28;54.80;;;;;;;7.92;83.80;98851.03;4954356;28;20434;-73
2023/02/17 08:02:12;;;;;;;57.85;54.45;;;;;;;7.89;82.92;98856.03;4944453;29;20054;-73
2023/02/17 08:04:37;;;;;;;58.65;55.15;;;;;;;7.95;83.63;98834.53;4939691;28;20027;-75
2023/02/17 08:07:03;;;;;;;58.80;55.33;;;;;;;7.88;83.90;98844.47;4962933;28;20039;-73
2023/02/17 08:15:02;;;;;;;59.78;56.08;;;;;;;7.96;84.11;98854.94;4942472;29;20580;-73
2023/02/17 08:17:28;;;;;;;61.85;58.20;;;;;;;7.86;84.47;98846.53;4965688;28;20031;-73
2023/02/17 08:19:54;;;;;;;61.30;57.50;;;;;;;7.89;84.82;98851.44;4961464;28;20444;-73
2023/02/17 08:22:19;;;;;;;60.17;56.67;;;;;;;8.05;84.31;98850.19;4959629;28;20031;-73
2023/02/17 08:24:45;;;;;;;58.05;54.50;;;;;;;8.00;83.96;98853.50;4964732;28;20039;-73
2023/02/17 08:27:12;;;;;;;58.50;55.10;;;;;;;8.09;84.20;98852.22;4967065;28;20488;-73
2023/02/17 08:29:37;;;;;;;56.75;53.42;;;;;;;8.03;84.46;98836.97;4961021;28;20489;-73
2023/02/17 08:32:03;;;;;;;59.38;56.10;;;;;;;8.18;84.03;98850.94;4960799;28;20023;-73
2023/02/17 08:34:32;;;;;;;59.72;56.30;;;;;;;8.08;84.08;98861.28;4964936;28;20043;-75
2023/02/17 08:36:58;;;;;;;56.42;53.33;;;;;;;8.03;83.81;98858.41;4956631;28;20550;-75
2023/02/17 08:39:23;;;;;;;55.92;52.83;;;;;;;8.19;83.10;98857.94;4945455;28;20057;-73
2023/02/17 08:41:48;;;;;;;54.17;51.17;;;;;;;8.26;84.36;98857.97;4961083;28;20034;-74
2023/02/17 08:44:16;;;;;;;58.80;55.38;;;;;;;8.19;83.89;98863.31;4959922;28;20058;-73
2023/02/17 08:46:42;;;;;;;57.22;54.17;;;;;;;8.19;84.69;98857.94;4970421;28;20066;-73
2023/02/17 08:49:08;;;;;;;60.13;56.60;;;;;;;8.21;84.38;98861.22;4952524;29;20184;-73
2023/02/17 08:51:33;;;;;;;58.58;55.40;;;;;;;8.01;85.16;98848.94;4966614;28;20478;-74
2023/02/17 08:54:01;;;;;;;58.45;55.17;;;;;;;8.01;85.13;98852.44;4953916;28;20090;-74
2023/02/17 08:56:27;;;;;;;59.65;56.35;;;;;;;8.09;85.49;98846.88;4922469;28;20028;-73
2023/02/17 08:58:53;;;;;;;59.50;56.00;;;;;;;8.09;85.17;98841.50;4944231;29;20549;-73
2023/02/17 09:01:18;;;;;;;58.67;55.38;;;;;;;8.14;85.67;98839.00;4968498;28;20050;-73
2023/02/17 09:03:45;;;;;;;62.35;58.70;;;;;;;8.06;85.59;98836.56;4977603;28;20112;-73
2023/02/17 09:06:10;;;;;;;61.80;58.47;;;;;;;8.07;85.87;98832.00;4958966;28;20109;-73
2023/02/17 09:08:38;;;;;;;58.55;55.25;;;;;;;8.06;86.30;98841.91;4963790;28;20074;-73
2023/02/17 09:11:04;;;;;;;60.38;56.80;;;;;;;8.06;85.86;98836.56;4966855;28;20509;-74
2023/02/17 09:13:29;;;;;;;58.50;55.00;;;;;;;8.16;85.73;98846.84;4961573;28;20030;-76
2023/02/17 09:15:55;;;;;;;58.53;55.33;;;;;;;7.98;86.70;98838.66;4940416;28;20474;-73
2023/02/17 09:18:20;;;;;;;60.25;56.75;;;;;;;8.09;86.20;98846.88;4960648;28;20038;-73
2023/02/17 09:20:46;;;;;;;59.00;55.70;;;;;;;7.97;86.76;98843.19;4957634;28;20525;-73
2023/02/17 09:23:11;;;;;;;61.67;58.13;;;;;;;8.05;87.32;98850.19;4960269;28;20138;-74
2023/02/17 09:25:37;;;;;;;58.42;54.92;;;;;;;8.08;87.88;98839.00;4960597;28;20043;-73
2023/02/17 09:28:02;;;;;;;61.72;58.15;;;;;;;8.07;86.09;98832.84;4953059;28;20556;-73
2023/02/17 09:30:28;;;;;;;59.88;56.40;;;;;;;8.05;86.47;98845.63;4936797;28;20031;-74
2023/02/17 09:32:54;;;;;;;61.55;58.05;;;;;;;8.11;87.26;98834.06;4963526;28;20035;-74
2023/02/17 09:35:19;;;;;;;58.15;54.95;;;;;;;8.08;86.20;98834.47;4966192;28;20030;-73
2023/02/17 09:37:45;;;;;;;59.55;55.95;;;;;;;8.19;86.64;98841.84;4960117;28;20114;-73
2023/02/17 09:40:20;;;;;;;59.42;56.03;;;;;;;8.12;87.38;98841.06;4942793;28;20501;-73
2023/02/17 09:42:46;;;;;;;61.38;57.88;;;;;;;8.14;86.57;98841.69;4962079;28;20046;-73
2023/02/17 09:45:17;;;;;;;62.83;59.03;;;;;;;8.22;87.42;98840.59;4965038;28;20039;-73
2023/02/17 09:47:46;;;;;;;60.35;56.72;;;;;;;8.19;86.78;98841.84;4962020;28;20039;-73
2023/02/17 09:50:15;;;;;;;61.50;58.13;;;;;;;8.16;86.29;98842.28;4958644;28;20482;-73
2023/02/17 09:52:55;;;;;;;58.90;55.40;;;;;;;8.24;86.40;98839.34;4944284;29;20038;-73
2023/02/17 09:55:28;;;;;;;59.92;56.63;;;;;;;8.24;86.17;98839.34;4964920;28;20489;-73
2023/02/17 09:58:30;;;;;;;67.50;62.97;;;;;;;8.46;86.30;98844.44;4948538;28;20030;-73
2023/02/17 10:00:57;;;;;;;59.85;56.38;;;;;;;8.32;85.79;98841.84;4928695;28;20056;-73
2023/02/17 10:03:34;;;;;;;56.38;53.38;;;;;;;8.45;85.24;98842.81;4929719;28;20600;-74
2023/02/17 10:06:21;;;;;;;56.88;53.65;;;;;;;8.46;85.70;98839.06;4944120;28;20043;-76
2023/02/17 10:08:54;;;;;;;;;;;;;;;8.58;85.90;98840.88;4945605;29;20399;-73
2023/02/17 10:11:31;;;;;;;55.05;51.85;;;;;;;8.65;84.52;98840.81;4967035;28;20364;-73
2023/02/17 10:14:01;;;;;;;55.65;52.65;;;;;;;8.60;84.43;98838.78;4952472;28;20038;-74
2023/02/17 10:16:30;;;;;;;53.50;50.60;;;;;;;8.72;84.43;98825.50;4962666;28;20762;-74
2023/02/17 10:19:00;;;;;;;54.05;50.72;;;;;;;8.74;84.44;98821.56;4961476;28;20019;-73
2023/02/17 10:21:34;;;;;;;51.28;48.42;;;;;;;8.76;84.68;98824.00;4966785;28;20504;-73
2023/02/17 10:24:00;;;;;;;50.60;48.00;;;;;;;8.85;84.57;98830.75;4968652;28;20122;-74
2023/02/17 10:26:25;;;;;;;51.15;48.40;;;;;;;8.73;84.79;98829.81;4964688;28;20025;-74
2023/02/17 10:29:28;;;;;;;50.53;47.83;;;;;;;8.83;84.25;98822.09;4962536;28;20138;-73
2023/02/17 10:32:03;;;;;;;51.53;48.92;;;;;;;8.81;84.39;98830.38;4943618;28;20054;-73
2023/02/17 10:34:37;;;;;;;50.80;48.38;;;;;;;8.77;83.75;98818.44;4974255;28;20034;-73
2023/02/17 10:37:03;;;;;;;50.03;47.47;;;;;;;8.92;83.74;98815.41;4957887;28;20035;-73
2023/02/17 10:40:04;;;;;;;49.35;46.85;;;;;;;8.79;84.30;98827.09;4936152;29;20031;-73
2023/02/17 10:42:33;;;;;;;50.15;47.67;;;;;;;8.85;84.06;98830.75;4946233;28;20053;-73
2023/02/17 10:45:11;;;;;;;51.20;48.50;;;;;;;8.82;84.03;98826.66;4961488;28;20030;-73
2023/02/17 10:47:38;;;;;;;50.88;48.40;;;;;;;8.80;84.24;98836.78;4964467;28;20123;-73
2023/02/17 10:50:05;;;;;;;49.42;47.03;;;;;;;8.94;83.92;98834.81;4967973;28;20486;-73
2023/02/17 10:52:37;;;;;;;50.65;48.05;;;;;;;8.78;84.65;98816.56;4964725;28;20037;-74
2023/02/17 10:55:36;;;;;;;50.95;48.45;;;;;;;8.81;84.68;98813.44;4945177;28;20042;-73
2023/02/17 10:58:27;;;;;;;47.78;45.47;;;;;;;8.86;84.99;98824.34;4961349;28;20039;-73
2023/02/17 11:00:55;;;;;;;44.60;42.22;;;;;;;8.87;84.16;98820.63;4950223;29;20409;-73
2023/02/17 11:03:26;;;;;;;44.78;42.28;;;;;;;8.88;84.07;98814.22;4964562;28;20438;-73
2023/02/17 11:06:16;;;;;;;44.35;42.15;;;;;;;8.91;84.50;98808.41;4961134;28;20086;-74
2023/02/17 11:08:49;;;;;;;46.78;44.33;;;;;;;8.79;85.43;98802.09;4958817;28;20061;-75
2023/02/17 11:11:20;;;;;;;46.22;43.92;;;;;;;8.90;84.87;98796.00;4961173;28;20505;-74
2023/02/17 11:13:57;;;;;;;46.50;44.28;;;;;;;8.85;85.11;98795.84;4943498;29;20044;-73
2023/02/17 11:16:26;;;;;;;48.33;46.10;;;;;;;8.91;85.12;98803.03;4949228;28;20027;-74
2023/02/17 11:18:52;;;;;;;50.88;48.38;;;;;;;8.87;85.78;98788.38;4960346;28;20107;-73
2023/02/17 11:21:17;;;;;;;49.88;47.40;;;;;;;9.01;84.82;98804.19;4954552;28;20178;-73
2023/02/17 11:24:02;;;;;;;47.33;45.20;;;;;;;9.09;84.78;98791.53;4950852;28;20066;-74
2023/02/17 11:26:30;;;;;;;47.40;45.10;;;;;;;9.11;84.63;98792.94;4953097;28;20240;-74
2023/02/17 11:29:16;;;;;;;48.55;46.17;;;;;;;9.15;85.49;98794.13;4957690;28;20023;-73
2023/02/17 11:31:54;;;;;;;51.67;49.17;;;;;;;9.19;84.83;98798.06;4966522;28;20070;-74
2023/02/17 11:34:22;;;;;;;49.50;47.13;;;;;;;9.25;84.35;98799.03;4950767;28;20034;-73
2023/02/17 11:37:05;;;;;;;51.22;48.83;;;;;;;9.29;84.18;98801.03;4972308;28;20548;-74